Amanda Park, Washington
Current Conditions -  °F | °C
As of 9:53 AM on Thursday 30 Oct 2014 (Local Time) from KHQM Reporting Station
Overcast Overcast  
Wind Chill: 55°   Ceiling: 2600
Heat Index: 55°   Visibility: 7mi
Dew Point: 54°   Wind: 12mph
Humidity: 96%   Direction: 60°ENE
Pressure: 29.81"   Gusts: NA
Location:  47.46°N, 123.89°W
Report Text: KHQM 301653Z AUTO 06010KT 7SM OVC026 13/12 A2981 RMK AO2 RAE04B37E51 SLP098 P0000 T01280122
Loading
Personal Weather Stations






























Interactive Weather Map
Tropical Storm Tracking
New forecast layout! Learn more

10-Day Weather Forecast

Advertisements
Track Severe Weather on mobile